sensor_id;sensor_type;location;lat;lon;timestamp;pressure;altitude;pressure_sealevel;temperature;humidity
61554;BME280;47425;51.976;5.326;2023-02-03T00:02:07;102311.69;;;14.97;50.84
61554;BME280;47425;51.976;5.326;2023-02-03T00:04:35;102314.31;;;14.98;50.83
61554;BME280;47425;51.976;5.326;2023-02-03T00:07:01;102315.34;;;14.86;50.71
61554;BME280;47425;51.976;5.326;2023-02-03T00:09:28;102327.72;;;14.84;50.58
61554;BME280;47425;51.976;5.326;2023-02-03T00:11:56;102325.25;;;14.72;51.10
61554;BME280;47425;51.976;5.326;2023-02-03T00:14:23;102336.16;;;14.42;51.81
61554;BME280;47425;51.976;5.326;2023-02-03T00:16:49;102331.84;;;14.34;52.20
61554;BME280;47425;51.976;5.326;2023-02-03T00:19:17;102331.00;;;14.33;51.93
61554;BME280;47425;51.976;5.326;2023-02-03T00:21:45;102318.78;;;14.24;52.13
61554;BME280;47425;51.976;5.326;2023-02-03T00:24:11;102330.25;;;14.20;52.36
61554;BME280;47425;51.976;5.326;2023-02-03T00:26:40;102337.50;;;14.01;53.01
61554;BME280;47425;51.976;5.326;2023-02-03T00:29:08;102329.59;;;14.01;52.85
61554;BME280;47425;51.976;5.326;2023-02-03T00:31:35;102345.56;;;13.83;53.28
61554;BME280;47425;51.976;5.326;2023-02-03T00:34:02;102339.59;;;13.65;53.83
61554;BME280;47425;51.976;5.326;2023-02-03T00:36:28;102336.94;;;13.70;53.72
61554;BME280;47425;51.976;5.326;2023-02-03T00:38:59;102356.13;;;13.83;53.84
61554;BME280;47425;51.976;5.326;2023-02-03T00:41:28;102346.31;;;13.97;53.08
61554;BME280;47425;51.976;5.326;2023-02-03T00:43:55;102342.75;;;14.03;52.66
61554;BME280;47425;51.976;5.326;2023-02-03T00:46:23;102352.13;;;14.27;52.67
61554;BME280;47425;51.976;5.326;2023-02-03T00:48:50;102358.34;;;14.23;52.31
61554;BME280;47425;51.976;5.326;2023-02-03T00:51:16;102348.16;;;13.89;52.77
61554;BME280;47425;51.976;5.326;2023-02-03T00:53:59;102355.31;;;13.76;53.53
61554;BME280;47425;51.976;5.326;2023-02-03T00:56:28;102338.63;;;13.77;53.95
61554;BME280;47425;51.976;5.326;2023-02-03T00:58:55;102351.72;;;13.82;53.20
61554;BME280;47425;51.976;5.326;2023-02-03T01:01:21;102345.66;;;13.73;53.92
61554;BME280;47425;51.976;5.326;2023-02-03T01:03:48;102331.63;;;13.74;53.69
61554;BME280;47425;51.976;5.326;2023-02-03T01:06:18;102326.19;;;13.93;53.24
61554;BME280;47425;51.976;5.326;2023-02-03T01:08:45;102322.38;;;14.19;52.82
61554;BME280;47425;51.976;5.326;2023-02-03T01:11:16;102319.75;;;14.17;53.00
61554;BME280;47425;51.976;5.326;2023-02-03T01:13:44;102318.06;;;14.12;52.69
61554;BME280;47425;51.976;5.326;2023-02-03T01:16:12;102326.88;;;14.10;52.85
61554;BME280;47425;51.976;5.326;2023-02-03T01:18:41;102315.44;;;14.08;52.79
61554;BME280;47425;51.976;5.326;2023-02-03T01:21:10;102333.88;;;14.12;53.01
61554;BME280;47425;51.976;5.326;2023-02-03T01:23:39;102326.91;;;14.04;52.81
61554;BME280;47425;51.976;5.326;2023-02-03T01:26:07;102323.38;;;14.07;52.76
61554;BME280;47425;51.976;5.326;2023-02-03T01:28:35;102321.66;;;14.04;53.21
61554;BME280;47425;51.976;5.326;2023-02-03T01:31:09;102308.44;;;14.09;52.75
61554;BME280;47425;51.976;5.326;2023-02-03T01:33:37;102314.69;;;13.99;53.30
61554;BME280;47425;51.976;5.326;2023-02-03T01:36:06;102315.50;;;14.05;52.88
61554;BME280;47425;51.976;5.326;2023-02-03T01:38:33;102290.94;;;14.02;53.18
61554;BME280;47425;51.976;5.326;2023-02-03T01:40:59;102288.06;;;14.23;52.81
61554;BME280;47425;51.976;5.326;2023-02-03T01:43:28;102288.88;;;14.29;52.85
61554;BME280;47425;51.976;5.326;2023-02-03T01:46:02;102263.22;;;14.43;52.56
61554;BME280;47425;51.976;5.326;2023-02-03T01:48:31;102262.06;;;14.64;51.75
61554;BME280;47425;51.976;5.326;2023-02-03T01:51:01;102272.66;;;14.58;51.61
61554;BME280;47425;51.976;5.326;2023-02-03T01:53:29;102265.94;;;14.35;52.15
61554;BME280;47425;51.976;5.326;2023-02-03T01:55:57;102282.63;;;14.37;52.17
61554;BME280;47425;51.976;5.326;2023-02-03T01:58:27;102284.53;;;14.24;52.71
61554;BME280;47425;51.976;5.326;2023-02-03T02:00:57;102295.31;;;14.04;52.64
61554;BME280;47425;51.976;5.326;2023-02-03T02:03:30;102293.47;;;14.11;52.68
61554;BME280;47425;51.976;5.326;2023-02-03T02:06:01;102292.69;;;14.03;53.19
61554;BME280;47425;51.976;5.326;2023-02-03T02:08:29;102285.56;;;14.11;52.75
61554;BME280;47425;51.976;5.326;2023-02-03T02:10:57;102287.22;;;14.20;52.66
61554;BME280;47425;51.976;5.326;2023-02-03T02:13:25;102252.88;;;14.26;52.47
61554;BME280;47425;51.976;5.326;2023-02-03T02:15:56;102259.75;;;14.38;52.07
61554;BME280;47425;51.976;5.326;2023-02-03T02:18:36;102264.94;;;14.46;51.88
61554;BME280;47425;51.976;5.326;2023-02-03T02:21:29;102276.19;;;14.58;51.55
61554;BME280;47425;51.976;5.326;2023-02-03T02:24:27;102269.88;;;14.70;51.58
61554;BME280;47425;51.976;5.326;2023-02-03T02:27:03;102269.09;;;14.62;51.55
61554;BME280;47425;51.976;5.326;2023-02-03T02:30:14;102254.47;;;14.41;51.90
61554;BME280;47425;51.976;5.326;2023-02-03T02:33:01;102266.09;;;14.23;52.20
61554;BME280;47425;51.976;5.326;2023-02-03T02:35:39;102275.00;;;14.16;52.64
61554;BME280;47425;51.976;5.326;2023-02-03T02:38:18;102273.19;;;14.18;52.40
61554;BME280;47425;51.976;5.326;2023-02-03T02:40:52;102275.00;;;14.13;52.47
61554;BME280;47425;51.976;5.326;2023-02-03T02:43:34;102269.06;;;13.95;52.70
61554;BME280;47425;51.976;5.326;2023-02-03T02:46:10;102270.97;;;13.84;53.25
61554;BME280;47425;51.976;5.326;2023-02-03T02:48:45;102257.69;;;13.93;53.23
61554;BME280;47425;51.976;5.326;2023-02-03T02:51:15;102262.75;;;14.08;52.70
61554;BME280;47425;51.976;5.326;2023-02-03T02:53:45;102262.06;;;13.92;53.37
61554;BME280;47425;51.976;5.326;2023-02-03T02:56:15;102260.25;;;13.98;53.23
61554;BME280;47425;51.976;5.326;2023-02-03T02:58:47;102259.41;;;13.97;53.04
61554;BME280;47425;51.976;5.326;2023-02-03T03:01:15;102243.41;;;14.14;52.72
61554;BME280;47425;51.976;5.326;2023-02-03T03:03:44;102244.06;;;14.30;52.47
61554;BME280;47425;51.976;5.326;2023-02-03T03:06:18;102247.34;;;14.46;52.40
61554;BME280;47425;51.976;5.326;2023-02-03T03:09:09;102246.31;;;14.56;51.63
61554;BME280;47425;51.976;5.326;2023-02-03T03:11:41;102231.44;;;14.52;51.74
61554;BME280;47425;51.976;5.326;2023-02-03T03:14:10;102233.03;;;14.66;51.34
61554;BME280;47425;51.976;5.326;2023-02-03T03:16:43;102221.63;;;14.65;51.25
61554;BME280;47425;51.976;5.326;2023-02-03T03:19:17;102229.44;;;14.71;51.23
61554;BME280;47425;51.976;5.326;2023-02-03T03:21:49;102243.00;;;14.42;51.61
61554;BME280;47425;51.976;5.326;2023-02-03T03:24:23;102232.91;;;14.09;52.34
61554;BME280;47425;51.976;5.326;2023-02-03T03:26:55;102239.03;;;14.12;52.57
61554;BME280;47425;51.976;5.326;2023-02-03T03:29:29;102260.66;;;14.35;52.43
61554;BME280;47425;51.976;5.326;2023-02-03T03:31:58;102265.06;;;14.35;52.14
61554;BME280;47425;51.976;5.326;2023-02-03T03:34:26;102261.56;;;14.36;51.79
61554;BME280;47425;51.976;5.326;2023-02-03T03:37:00;102255.31;;;14.41;51.89
61554;BME280;47425;51.976;5.326;2023-02-03T03:39:34;102268.28;;;14.58;51.75
61554;BME280;47425;51.976;5.326;2023-02-03T03:42:06;102253.19;;;14.70;51.17
61554;BME280;47425;51.976;5.326;2023-02-03T03:44:38;102258.41;;;14.73;50.93
61554;BME280;47425;51.976;5.326;2023-02-03T03:47:14;102251.81;;;14.42;51.50
61554;BME280;47425;51.976;5.326;2023-02-03T03:49:46;102254.69;;;14.24;52.33
61554;BME280;47425;51.976;5.326;2023-02-03T03:52:19;102246.97;;;14.07;52.54
61554;BME280;47425;51.976;5.326;2023-02-03T03:54:48;102255.69;;;14.14;52.27
61554;BME280;47425;51.976;5.326;2023-02-03T03:57:22;102262.75;;;14.12;52.44
61554;BME280;47425;51.976;5.326;2023-02-03T03:59:51;102257.66;;;13.96;52.87
61554;BME280;47425;51.976;5.326;2023-02-03T04:02:18;102276.22;;;13.85;53.43
61554;BME280;47425;51.976;5.326;2023-02-03T04:04:48;102278.69;;;13.99;53.24
61554;BME280;47425;51.976;5.326;2023-02-03T04:07:17;102285.75;;;13.96;53.17
61554;BME280;47425;51.976;5.326;2023-02-03T04:09:44;102279.66;;;13.92;53.05
61554;BME280;47425;51.976;5.326;2023-02-03T04:12:22;102277.78;;;14.00;53.01
61554;BME280;47425;51.976;5.326;2023-02-03T04:14:48;102279.63;;;13.97;52.98
61554;BME280;47425;51.976;5.326;2023-02-03T04:17:35;102279.84;;;13.76;52.89
61554;BME280;47425;51.976;5.326;2023-02-03T04:20:04;102288.41;;;13.92;53.54
61554;BME280;47425;51.976;5.326;2023-02-03T04:22:31;102284.88;;;13.95;52.83
61554;BME280;47425;51.976;5.326;2023-02-03T04:24:57;102293.66;;;13.97;53.11
61554;BME280;47425;51.976;5.326;2023-02-03T04:27:25;102298.56;;;14.26;52.26
61554;BME280;47425;51.976;5.326;2023-02-03T04:29:52;102282.41;;;14.54;51.47
61554;BME280;47425;51.976;5.326;2023-02-03T04:32:18;102283.19;;;14.59;51.54
61554;BME280;47425;51.976;5.326;2023-02-03T04:34:45;102280.50;;;14.66;51.15
61554;BME280;47425;51.976;5.326;2023-02-03T04:37:13;102272.63;;;14.64;51.49
61554;BME280;47425;51.976;5.326;2023-02-03T04:39:39;102277.78;;;14.72;50.99
61554;BME280;47425;51.976;5.326;2023-02-03T04:42:06;102265.59;;;14.63;51.26
61554;BME280;47425;51.976;5.326;2023-02-03T04:44:34;102265.78;;;14.48;51.91
61554;BME280;47425;51.976;5.326;2023-02-03T04:47:00;102258.94;;;14.34;51.99
61554;BME280;47425;51.976;5.326;2023-02-03T04:49:27;102265.91;;;14.40;51.44
61554;BME280;47425;51.976;5.326;2023-02-03T04:51:55;102268.47;;;14.43;51.63
61554;BME280;47425;51.976;5.326;2023-02-03T04:54:23;102277.16;;;14.51;51.78
61554;BME280;47425;51.976;5.326;2023-02-03T04:56:49;102275.56;;;14.41;51.95
61554;BME280;47425;51.976;5.326;2023-02-03T04:59:16;102270.28;;;14.39;51.82
61554;BME280;47425;51.976;5.326;2023-02-03T05:01:44;102267.81;;;14.27;52.04
61554;BME280;47425;51.976;5.326;2023-02-03T05:04:10;102275.69;;;14.29;52.07
61554;BME280;47425;51.976;5.326;2023-02-03T05:06:37;102262.63;;;14.22;52.20
61554;BME280;47425;51.976;5.326;2023-02-03T05:09:03;102274.53;;;14.50;51.45
61554;BME280;47425;51.976;5.326;2023-02-03T05:11:33;102273.56;;;14.58;51.29
61554;BME280;47425;51.976;5.326;2023-02-03T05:13:59;102269.09;;;14.64;50.81
61554;BME280;47425;51.976;5.326;2023-02-03T05:16:26;102268.19;;;14.66;51.35
61554;BME280;47425;51.976;5.326;2023-02-03T05:19:13;102257.28;;;14.88;50.55
61554;BME280;47425;51.976;5.326;2023-02-03T05:21:40;102259.09;;;14.86;50.47
61554;BME280;47425;51.976;5.326;2023-02-03T05:24:07;102257.59;;;14.69;50.68
61554;BME280;47425;51.976;5.326;2023-02-03T05:26:35;102268.97;;;14.74;50.92
61554;BME280;47425;51.976;5.326;2023-02-03T05:29:03;102274.03;;;14.87;50.77
61554;BME280;47425;51.976;5.326;2023-02-03T05:31:30;102280.78;;;15.05;50.33
61554;BME280;47425;51.976;5.326;2023-02-03T05:33:57;102291.38;;;15.03;49.74
61554;BME280;47425;51.976;5.326;2023-02-03T05:36:24;102290.69;;;14.92;50.77
61554;BME280;47425;51.976;5.326;2023-02-03T05:38:52;102283.91;;;14.72;50.66
61554;BME280;47425;51.976;5.326;2023-02-03T05:41:18;102290.00;;;14.77;50.82
61554;BME280;47425;51.976;5.326;2023-02-03T05:44:04;102254.19;;;14.59;51.22
61554;BME280;47425;51.976;5.326;2023-02-03T05:46:31;102261.22;;;14.59;50.87
61554;BME280;47425;51.976;5.326;2023-02-03T05:48:59;102264.75;;;14.58;51.20
61554;BME280;47425;51.976;5.326;2023-02-03T05:51:25;102269.34;;;14.43;51.65
61554;BME280;47425;51.976;5.326;2023-02-03T05:53:52;102272.63;;;14.59;51.11
61554;BME280;47425;51.976;5.326;2023-02-03T05:56:20;102282.16;;;14.71;50.79
61554;BME280;47425;51.976;5.326;2023-02-03T05:58:46;102280.56;;;14.61;50.72
61554;BME280;47425;51.976;5.326;2023-02-03T06:01:17;102278.81;;;14.58;51.83
61554;BME280;47425;51.976;5.326;2023-02-03T06:03:43;102280.72;;;14.47;51.69
61554;BME280;47425;51.976;5.326;2023-02-03T06:06:11;102273.19;;;14.21;52.29
61554;BME280;47425;51.976;5.326;2023-02-03T06:08:38;102277.50;;;14.26;51.93
61554;BME280;47425;51.976;5.326;2023-02-03T06:11:05;102270.31;;;14.36;51.99
61554;BME280;47425;51.976;5.326;2023-02-03T06:13:31;102275.69;;;14.29;52.05
61554;BME280;47425;51.976;5.326;2023-02-03T06:15:59;102260.66;;;14.35;51.69
61554;BME280;47425;51.976;5.326;2023-02-03T06:18:27;102257.41;;;14.16;52.44
61554;BME280;47425;51.976;5.326;2023-02-03T06:20:54;102259.44;;;13.94;52.77
61554;BME280;47425;51.976;5.326;2023-02-03T06:23:21;102250.66;;;13.93;52.82
61554;BME280;47425;51.976;5.326;2023-02-03T06:25:49;102258.41;;;14.07;52.54
61554;BME280;47425;51.976;5.326;2023-02-03T06:28:16;102258.38;;;14.10;51.86
61554;BME280;47425;51.976;5.326;2023-02-03T06:30:43;102258.66;;;13.84;52.97
61554;BME280;47425;51.976;5.326;2023-02-03T06:33:11;102265.91;;;13.65;53.22
61554;BME280;47425;51.976;5.326;2023-02-03T06:35:39;102266.66;;;13.75;53.22
61554;BME280;47425;51.976;5.326;2023-02-03T06:38:05;102274.53;;;13.80;53.36
61554;BME280;47425;51.976;5.326;2023-02-03T06:40:32;102277.97;;;13.86;53.20
61554;BME280;47425;51.976;5.326;2023-02-03T06:42:59;102286.69;;;13.88;53.20
61554;BME280;47425;51.976;5.326;2023-02-03T06:45:26;102299.06;;;13.85;53.07
61554;BME280;47425;51.976;5.326;2023-02-03T06:48:08;102285.72;;;13.99;52.92
61554;BME280;47425;51.976;5.326;2023-02-03T06:50:35;102280.28;;;14.13;52.87
61554;BME280;47425;51.976;5.326;2023-02-03T06:53:06;102298.53;;;14.30;52.38
61554;BME280;47425;51.976;5.326;2023-02-03T06:55:33;102303.06;;;14.18;52.41
61554;BME280;47425;51.976;5.326;2023-02-03T06:57:59;102298.72;;;14.13;52.23
61554;BME280;47425;51.976;5.326;2023-02-03T07:00:27;102325.06;;;14.16;52.83
61554;BME280;47425;51.976;5.326;2023-02-03T07:02:55;102314.56;;;14.09;52.87
61554;BME280;47425;51.976;5.326;2023-02-03T07:05:22;102321.53;;;14.17;52.26
61554;BME280;47425;51.976;5.326;2023-02-03T07:07:51;102316.06;;;14.32;52.27
61554;BME280;47425;51.976;5.326;2023-02-03T07:10:19;102320.22;;;14.49;51.38
61554;BME280;47425;51.976;5.326;2023-02-03T07:12:46;102330.78;;;14.49;51.30
61554;BME280;47425;51.976;5.326;2023-02-03T07:15:12;102317.06;;;14.22;52.26
61554;BME280;47425;51.976;5.326;2023-02-03T07:17:40;102324.84;;;14.31;52.22
61554;BME280;47425;51.976;5.326;2023-02-03T07:20:07;102329.41;;;14.18;52.35
61554;BME280;47425;51.976;5.326;2023-02-03T07:22:34;102320.13;;;13.85;53.23
61554;BME280;47425;51.976;5.326;2023-02-03T07:25:03;102329.06;;;13.70;53.44
61554;BME280;47425;51.976;5.326;2023-02-03T07:27:32;102331.72;;;13.65;53.42
61554;BME280;47425;51.976;5.326;2023-02-03T07:29:59;102318.56;;;13.64;53.47
61554;BME280;47425;51.976;5.326;2023-02-03T07:32:25;102321.25;;;13.61;54.36
61554;BME280;47425;51.976;5.326;2023-02-03T07:34:53;102323.84;;;13.62;54.48
61554;BME280;47425;51.976;5.326;2023-02-03T07:37:20;102329.06;;;13.70;54.09
61554;BME280;47425;51.976;5.326;2023-02-03T07:39:46;102329.88;;;13.72;54.15
61554;BME280;47425;51.976;5.326;2023-02-03T07:42:14;102321.06;;;13.77;54.32
61554;BME280;47425;51.976;5.326;2023-02-03T07:44:46;102325.47;;;13.75;54.19
61554;BME280;47425;51.976;5.326;2023-02-03T07:47:14;102328.97;;;13.76;54.27
61554;BME280;47425;51.976;5.326;2023-02-03T07:49:40;102338.72;;;13.66;54.45
61554;BME280;47425;51.976;5.326;2023-02-03T07:52:08;102336.13;;;13.65;54.72
61554;BME280;47425;51.976;5.326;2023-02-03T07:54:36;102338.56;;;13.83;54.68
61554;BME280;47425;51.976;5.326;2023-02-03T07:57:02;102322.97;;;13.63;54.93
61554;BME280;47425;51.976;5.326;2023-02-03T07:59:29;102330.81;;;13.66;54.76
61554;BME280;47425;51.976;5.326;2023-02-03T08:01:59;102348.38;;;13.64;54.79
61554;BME280;47425;51.976;5.326;2023-02-03T08:04:26;102350.19;;;13.57;55.61
61554;BME280;47425;51.976;5.326;2023-02-03T08:06:53;102351.94;;;13.60;55.22
61554;BME280;47425;51.976;5.326;2023-02-03T08:09:19;102337.72;;;13.80;54.65
61554;BME280;47425;51.976;5.326;2023-02-03T08:11:47;102344.53;;;14.01;54.70
61554;BME280;47425;51.976;5.326;2023-02-03T08:14:14;102349.84;;;13.96;54.06
61554;BME280;47425;51.976;5.326;2023-02-03T08:16:40;102349.03;;;13.89;54.73
61554;BME280;47425;51.976;5.326;2023-02-03T08:19:09;102344.63;;;13.93;55.12
61554;BME280;47425;51.976;5.326;2023-02-03T08:21:37;102351.50;;;14.06;54.73
61554;BME280;47425;51.976;5.326;2023-02-03T08:24:04;102364.47;;;14.22;54.59
61554;BME280;47425;51.976;5.326;2023-02-03T08:26:31;102356.69;;;14.13;54.38
61554;BME280;47425;51.976;5.326;2023-02-03T08:28:58;102367.13;;;14.20;54.07
61554;BME280;47425;51.976;5.326;2023-02-03T08:31:25;102373.25;;;14.24;53.99
61554;BME280;47425;51.976;5.326;2023-02-03T08:33:52;102373.22;;;14.25;53.63
61554;BME280;47425;51.976;5.326;2023-02-03T08:36:20;102368.09;;;14.13;54.25
61554;BME280;47425;51.976;5.326;2023-02-03T08:38:48;102367.25;;;14.09;54.18
61554;BME280;47425;51.976;5.326;2023-02-03T08:41:16;102378.72;;;14.05;54.53
61554;BME280;47425;51.976;5.326;2023-02-03T08:43:44;102379.47;;;14.18;54.36
61554;BME280;47425;51.976;5.326;2023-02-03T08:46:12;102377.56;;;14.31;53.67
61554;BME280;47425;51.976;5.326;2023-02-03T08:48:40;102368.69;;;14.40;53.81
61554;BME280;47425;51.976;5.326;2023-02-03T08:51:10;102366.91;;;14.40;54.14
61554;BME280;47425;51.976;5.326;2023-02-03T08:53:38;102379.06;;;14.52;54.03
61554;BME280;47425;51.976;5.326;2023-02-03T08:56:06;102379.84;;;14.60;53.79
61554;BME280;47425;51.976;5.326;2023-02-03T08:58:33;102380.59;;;14.73;53.34
61554;BME280;47425;51.976;5.326;2023-02-03T09:01:05;102373.50;;;14.79;52.88
61554;BME280;47425;51.976;5.326;2023-02-03T09:03:33;102375.34;;;14.73;52.35
61554;BME280;47425;51.976;5.326;2023-02-03T09:06:01;102373.50;;;14.77;53.00
61554;BME280;47425;51.976;5.326;2023-02-03T09:08:27;102398.16;;;14.76;52.57
61554;BME280;47425;51.976;5.326;2023-02-03T09:10:55;102378.31;;;14.42;53.25
61554;BME280;47425;51.976;5.326;2023-02-03T09:13:22;102390.47;;;14.53;53.35
61554;BME280;47425;51.976;5.326;2023-02-03T09:15:50;102404.47;;;14.59;53.39
61554;BME280;47425;51.976;5.326;2023-02-03T09:18:17;102402.66;;;14.68;53.19
61554;BME280;47425;51.976;5.326;2023-02-03T09:20:44;102412.34;;;14.66;53.13
61554;BME280;47425;51.976;5.326;2023-02-03T09:23:10;102407.88;;;14.71;53.37
61554;BME280;47425;51.976;5.326;2023-02-03T09:25:37;102421.09;;;14.69;52.79
61554;BME280;47425;51.976;5.326;2023-02-03T09:28:05;102415.56;;;14.89;52.95
61554;BME280;47425;51.976;5.326;2023-02-03T09:30:32;102408.44;;;14.94;52.28
61554;BME280;47425;51.976;5.326;2023-02-03T09:32:59;102385.00;;;14.71;52.64
61554;BME280;47425;51.976;5.326;2023-02-03T09:35:26;102427.34;;;14.57;53.20
61554;BME280;47425;51.976;5.326;2023-02-03T09:37:54;102411.44;;;14.67;53.29
61554;BME280;47425;51.976;5.326;2023-02-03T09:40:25;102404.47;;;14.58;52.96
61554;BME280;47425;51.976;5.326;2023-02-03T09:43:00;102407.03;;;14.69;53.26
61554;BME280;47425;51.976;5.326;2023-02-03T09:45:31;102428.75;;;14.88;52.91
61554;BME280;47425;51.976;5.326;2023-02-03T09:48:02;102423.63;;;14.79;53.13
61554;BME280;47425;51.976;5.326;2023-02-03T09:50:50;102413.59;;;15.04;52.67
61554;BME280;47425;51.976;5.326;2023-02-03T09:53:24;102428.44;;;15.13;52.69
61554;BME280;47425;51.976;5.326;2023-02-03T09:55:53;102427.47;;;15.18;52.54
61554;BME280;47425;51.976;5.326;2023-02-03T09:58:20;102438.97;;;15.14;51.96
61554;BME280;47425;51.976;5.326;2023-02-03T10:00:52;102436.38;;;15.11;52.64
61554;BME280;47425;51.976;5.326;2023-02-03T10:03:28;102437.13;;;15.19;52.17
61554;BME280;47425;51.976;5.326;2023-02-03T10:06:09;102442.47;;;15.16;52.60
61554;BME280;47425;51.976;5.326;2023-02-03T10:08:50;102435.53;;;15.07;52.38
61554;BME280;47425;51.976;5.326;2023-02-03T10:11:31;102448.91;;;14.93;52.78
61554;BME280;47425;51.976;5.326;2023-02-03T10:14:10;102456.97;;;14.83;52.96
61554;BME280;47425;51.976;5.326;2023-02-03T10:16:56;102453.84;;;15.18;52.71
61554;BME280;47425;51.976;5.326;2023-02-03T10:22:22;102466.50;;;15.57;51.37
61554;BME280;47425;51.976;5.326;2023-02-03T10:24:55;102450.72;;;15.52;51.38
61554;BME280;47425;51.976;5.326;2023-02-03T10:27:24;102457.00;;;15.45;51.90
61554;BME280;47425;51.976;5.326;2023-02-03T10:29:56;102464.09;;;15.43;51.85
61554;BME280;47425;51.976;5.326;2023-02-03T10:32:26;102452.81;;;15.30;51.70
61554;BME280;47425;51.976;5.326;2023-02-03T10:34:53;102450.03;;;15.39;51.70
61554;BME280;47425;51.976;5.326;2023-02-03T10:37:25;102463.97;;;15.49;51.55
61554;BME280;47425;51.976;5.326;2023-02-03T10:39:55;102457.03;;;15.43;51.91
61554;BME280;47425;51.976;5.326;2023-02-03T10:42:23;102458.75;;;15.46;51.91
61554;BME280;47425;51.976;5.326;2023-02-03T10:44:52;102458.69;;;15.49;51.32
61554;BME280;47425;51.976;5.326;2023-02-03T10:47:26;102469.34;;;15.41;51.14
61554;BME280;47425;51.976;5.326;2023-02-03T10:49:56;102466.84;;;15.34;51.61
61554;BME280;47425;51.976;5.326;2023-02-03T10:52:27;102469.66;;;15.20;51.73
61554;BME280;47425;51.976;5.326;2023-02-03T10:54:54;102484.59;;;15.22;52.23
61554;BME280;47425;51.976;5.326;2023-02-03T10:57:27;102477.56;;;15.21;52.17
61554;BME280;47425;51.976;5.326;2023-02-03T11:00:05;102478.78;;;14.96;52.40
61554;BME280;47425;51.976;5.326;2023-02-03T11:02:35;102475.44;;;14.80;52.83
61554;BME280;47425;51.976;5.326;2023-02-03T11:05:17;102473.69;;;14.82;53.35
61554;BME280;47425;51.976;5.326;2023-02-03T11:07:44;102468.22;;;14.99;53.09
61554;BME280;47425;51.976;5.326;2023-02-03T11:10:30;102468.00;;;15.14;52.43
61554;BME280;47425;51.976;5.326;2023-02-03T11:13:17;102470.41;;;15.31;51.72
61554;BME280;47425;51.976;5.326;2023-02-03T11:15:53;102455.09;;;14.92;52.38
61554;BME280;47425;51.976;5.326;2023-02-03T11:18:34;102476.31;;;14.82;52.88
61554;BME280;47425;51.976;5.326;2023-02-03T11:21:08;102473.59;;;14.89;53.23
61554;BME280;47425;51.976;5.326;2023-02-03T11:23:43;102473.38;;;15.05;52.56
61554;BME280;47425;51.976;5.326;2023-02-03T11:26:14;102478.81;;;14.94;52.93
61554;BME280;47425;51.976;5.326;2023-02-03T11:28:46;102470.19;;;14.80;52.83
61554;BME280;47425;51.976;5.326;2023-02-03T11:31:16;102474.63;;;14.76;53.78
61554;BME280;47425;51.976;5.326;2023-02-03T11:33:52;102480.56;;;14.93;53.15
61554;BME280;47425;51.976;5.326;2023-02-03T11:36:24;102476.16;;;14.94;52.83
61554;BME280;47425;51.976;5.326;2023-02-03T11:39:08;102476.47;;;14.69;53.25
61554;BME280;47425;51.976;5.326;2023-02-03T11:41:38;102475.63;;;14.63;53.83
61554;BME280;47425;51.976;5.326;2023-02-03T11:44:14;102472.22;;;14.51;54.03
61554;BME280;47425;51.976;5.326;2023-02-03T11:46:42;102468.72;;;14.51;53.86
61554;BME280;47425;51.976;5.326;2023-02-03T11:49:22;102478.19;;;14.72;53.42
61554;BME280;47425;51.976;5.326;2023-02-03T11:52:01;102467.72;;;14.63;53.70
61554;BME280;47425;51.976;5.326;2023-02-03T11:54:41;102469.47;;;14.62;53.81
61554;BME280;47425;51.976;5.326;2023-02-03T11:57:25;102468.66;;;14.55;53.34
61554;BME280;47425;51.976;5.326;2023-02-03T12:00:11;102452.25;;;14.32;54.41
61554;BME280;47425;51.976;5.326;2023-02-03T12:03:05;102463.59;;;14.35;54.60
61554;BME280;47425;51.976;5.326;2023-02-03T12:05:57;102459.44;;;14.11;55.47
61554;BME280;47425;51.976;5.326;2023-02-03T12:08:38;102455.13;;;14.04;55.60
61554;BME280;47425;51.976;5.326;2023-02-03T12:11:16;102467.25;;;14.20;54.41
61554;BME280;47425;51.976;5.326;2023-02-03T12:13:58;102464.78;;;14.06;55.13
61554;BME280;47425;51.976;5.326;2023-02-03T12:16:45;102452.41;;;14.13;55.47
61554;BME280;47425;51.976;5.326;2023-02-03T12:19:29;102462.03;;;14.17;55.18
61554;BME280;47425;51.976;5.326;2023-02-03T12:22:13;102469.75;;;14.37;54.78
61554;BME280;47425;51.976;5.326;2023-02-03T12:24:51;102481.19;;;14.35;54.64
61554;BME280;47425;51.976;5.326;2023-02-03T12:27:33;102491.78;;;14.32;55.25
61554;BME280;47425;51.976;5.326;2023-02-03T12:30:12;102481.31;;;14.22;55.21
61554;BME280;47425;51.976;5.326;2023-02-03T12:32:47;102487.53;;;14.12;55.14
61554;BME280;47425;51.976;5.326;2023-02-03T12:35:19;102487.50;;;14.15;55.67
61554;BME280;47425;51.976;5.326;2023-02-03T12:37:55;102499.09;;;13.97;55.60
61554;BME280;47425;51.976;5.326;2023-02-03T12:40:33;102481.66;;;13.82;56.15
61554;BME280;47425;51.976;5.326;2023-02-03T12:43:19;102499.28;;;13.69;56.40
61554;BME280;47425;51.976;5.326;2023-02-03T12:45:53;102505.63;;;13.40;57.59
61554;BME280;47425;51.976;5.326;2023-02-03T12:48:24;102503.00;;;13.30;58.45
61554;BME280;47425;51.976;5.326;2023-02-03T12:50:55;102492.53;;;13.17;58.60
61554;BME280;47425;51.976;5.326;2023-02-03T12:53:30;102508.25;;;13.33;57.89
61554;BME280;47425;51.976;5.326;2023-02-03T12:56:04;102504.81;;;13.23;58.11
61554;BME280;47425;51.976;5.326;2023-02-03T12:58:38;102517.09;;;13.18;58.40
61554;BME280;47425;51.976;5.326;2023-02-03T13:01:13;102510.19;;;12.93;59.12
61554;BME280;47425;51.976;5.326;2023-02-03T13:03:48;102520.69;;;12.97;59.48
61554;BME280;47425;51.976;5.326;2023-02-03T13:06:25;102525.09;;;12.87;60.37
61554;BME280;47425;51.976;5.326;2023-02-03T13:09:00;102527.72;;;12.82;59.98
61554;BME280;47425;51.976;5.326;2023-02-03T13:11:33;102528.66;;;12.55;60.73
61554;BME280;47425;51.976;5.326;2023-02-03T13:14:10;102547.06;;;12.27;61.63